sensor_id;sensor_type;location;lat;lon;timestamp;temperature;humidity
24144;DHT22;12307;50.828;6.080;2023-08-20T00:02:01;23.80;85.50
24144;DHT22;12307;50.828;6.080;2023-08-20T00:04:28;23.80;85.50
24144;DHT22;12307;50.828;6.080;2023-08-20T00:06:56;23.80;85.50
24144;DHT22;12307;50.828;6.080;2023-08-20T00:09:22;23.80;85.60
24144;DHT22;12307;50.828;6.080;2023-08-20T00:11:49;23.80;85.60
24144;DHT22;12307;50.828;6.080;2023-08-20T00:14:16;23.80;85.70
24144;DHT22;12307;50.828;6.080;2023-08-20T00:16:43;23.80;85.70
24144;DHT22;12307;50.828;6.080;2023-08-20T00:19:09;23.80;85.70
24144;DHT22;12307;50.828;6.080;2023-08-20T00:21:40;23.80;85.70
24144;DHT22;12307;50.828;6.080;2023-08-20T00:24:09;23.80;85.70
24144;DHT22;12307;50.828;6.080;2023-08-20T00:26:35;23.80;85.80
24144;DHT22;12307;50.828;6.080;2023-08-20T00:29:01;23.80;85.70
24144;DHT22;12307;50.828;6.080;2023-08-20T00:31:27;23.80;85.80
24144;DHT22;12307;50.828;6.080;2023-08-20T00:33:53;23.80;85.80
24144;DHT22;12307;50.828;6.080;2023-08-20T00:36:19;23.80;86.60
24144;DHT22;12307;50.828;6.080;2023-08-20T00:38:45;23.80;85.80
24144;DHT22;12307;50.828;6.080;2023-08-20T00:41:12;23.80;85.80
24144;DHT22;12307;50.828;6.080;2023-08-20T00:43:38;23.70;85.70
24144;DHT22;12307;50.828;6.080;2023-08-20T00:46:04;23.70;85.70
24144;DHT22;12307;50.828;6.080;2023-08-20T00:48:30;23.70;85.70
24144;DHT22;12307;50.828;6.080;2023-08-20T00:50:57;23.70;85.80
24144;DHT22;12307;50.828;6.080;2023-08-20T00:53:22;23.70;85.80
24144;DHT22;12307;50.828;6.080;2023-08-20T00:55:48;23.70;85.80
24144;DHT22;12307;50.828;6.080;2023-08-20T00:58:15;23.70;85.80
24144;DHT22;12307;50.828;6.080;2023-08-20T01:00:41;23.70;85.90
24144;DHT22;12307;50.828;6.080;2023-08-20T01:03:07;23.70;85.90
24144;DHT22;12307;50.828;6.080;2023-08-20T01:05:38;23.70;85.90
24144;DHT22;12307;50.828;6.080;2023-08-20T01:08:14;23.70;85.90
24144;DHT22;12307;50.828;6.080;2023-08-20T01:10:51;23.70;85.90
24144;DHT22;12307;50.828;6.080;2023-08-20T01:13:20;23.70;85.90
24144;DHT22;12307;50.828;6.080;2023-08-20T01:15:46;23.70;85.90
24144;DHT22;12307;50.828;6.080;2023-08-20T01:18:12;23.70;85.90
24144;DHT22;12307;50.828;6.080;2023-08-20T01:20:41;23.70;86.00
24144;DHT22;12307;50.828;6.080;2023-08-20T01:23:30;23.70;85.90
24144;DHT22;12307;50.828;6.080;2023-08-20T01:26:13;23.60;85.90
24144;DHT22;12307;50.828;6.080;2023-08-20T01:28:43;23.60;86.00
24144;DHT22;12307;50.828;6.080;2023-08-20T01:31:09;23.60;85.90
24144;DHT22;12307;50.828;6.080;2023-08-20T01:33:36;23.60;85.90
24144;DHT22;12307;50.828;6.080;2023-08-20T01:36:02;23.60;86.00
24144;DHT22;12307;50.828;6.080;2023-08-20T01:38:27;23.60;86.00
24144;DHT22;12307;50.828;6.080;2023-08-20T01:40:53;23.60;86.00
24144;DHT22;12307;50.828;6.080;2023-08-20T01:43:19;23.60;86.00
24144;DHT22;12307;50.828;6.080;2023-08-20T01:45:46;23.60;86.00
24144;DHT22;12307;50.828;6.080;2023-08-20T01:48:12;23.60;86.00
24144;DHT22;12307;50.828;6.080;2023-08-20T01:50:38;23.60;86.00
24144;DHT22;12307;50.828;6.080;2023-08-20T01:53:04;23.60;86.00
24144;DHT22;12307;50.828;6.080;2023-08-20T01:55:30;23.60;86.00
24144;DHT22;12307;50.828;6.080;2023-08-20T01:57:56;23.60;86.10
24144;DHT22;12307;50.828;6.080;2023-08-20T02:00:21;23.60;86.10
24144;DHT22;12307;50.828;6.080;2023-08-20T02:02:48;23.60;86.10
24144;DHT22;12307;50.828;6.080;2023-08-20T02:05:14;23.60;86.10
24144;DHT22;12307;50.828;6.080;2023-08-20T02:07:40;23.60;86.10
24144;DHT22;12307;50.828;6.080;2023-08-20T02:10:07;23.60;86.10
24144;DHT22;12307;50.828;6.080;2023-08-20T02:12:33;23.60;86.10
24144;DHT22;12307;50.828;6.080;2023-08-20T02:14:58;23.60;86.20
24144;DHT22;12307;50.828;6.080;2023-08-20T02:17:24;23.60;86.20
24144;DHT22;12307;50.828;6.080;2023-08-20T02:19:51;23.60;86.20
24144;DHT22;12307;50.828;6.080;2023-08-20T02:22:17;23.60;86.20
24144;DHT22;12307;50.828;6.080;2023-08-20T02:24:44;23.60;86.20
24144;DHT22;12307;50.828;6.080;2023-08-20T02:27:10;23.50;86.20
24144;DHT22;12307;50.828;6.080;2023-08-20T02:29:36;23.50;86.20
24144;DHT22;12307;50.828;6.080;2023-08-20T02:32:02;23.50;86.20
24144;DHT22;12307;50.828;6.080;2023-08-20T02:34:28;23.50;86.20
24144;DHT22;12307;50.828;6.080;2023-08-20T02:36:55;23.50;86.20
24144;DHT22;12307;50.828;6.080;2023-08-20T02:39:21;23.50;86.20
24144;DHT22;12307;50.828;6.080;2023-08-20T02:41:46;23.50;86.20
24144;DHT22;12307;50.828;6.080;2023-08-20T02:44:12;23.50;86.20
24144;DHT22;12307;50.828;6.080;2023-08-20T02:46:38;23.50;86.20
24144;DHT22;12307;50.828;6.080;2023-08-20T02:49:06;23.50;86.20
24144;DHT22;12307;50.828;6.080;2023-08-20T02:51:32;23.50;86.30
24144;DHT22;12307;50.828;6.080;2023-08-20T02:53:59;23.50;86.30
24144;DHT22;12307;50.828;6.080;2023-08-20T02:56:24;23.50;86.30
24144;DHT22;12307;50.828;6.080;2023-08-20T02:58:50;23.50;86.30
24144;DHT22;12307;50.828;6.080;2023-08-20T03:01:20;23.50;86.30
24144;DHT22;12307;50.828;6.080;2023-08-20T03:03:45;23.50;86.30
24144;DHT22;12307;50.828;6.080;2023-08-20T03:06:11;23.50;86.30
24144;DHT22;12307;50.828;6.080;2023-08-20T03:08:37;23.50;86.40
24144;DHT22;12307;50.828;6.080;2023-08-20T03:11:04;23.50;86.40
24144;DHT22;12307;50.828;6.080;2023-08-20T03:13:30;23.50;86.40
24144;DHT22;12307;50.828;6.080;2023-08-20T03:15:56;23.50;86.40
24144;DHT22;12307;50.828;6.080;2023-08-20T03:18:22;23.40;86.40
24144;DHT22;12307;50.828;6.080;2023-08-20T03:20:47;23.50;86.50
24144;DHT22;12307;50.828;6.080;2023-08-20T03:23:13;23.40;86.40
24144;DHT22;12307;50.828;6.080;2023-08-20T03:25:39;23.40;86.50
24144;DHT22;12307;50.828;6.080;2023-08-20T03:28:06;23.40;86.40
24144;DHT22;12307;50.828;6.080;2023-08-20T03:30:32;23.40;86.50
24144;DHT22;12307;50.828;6.080;2023-08-20T03:32:59;23.40;86.50
24144;DHT22;12307;50.828;6.080;2023-08-20T03:35:24;23.40;86.50
24144;DHT22;12307;50.828;6.080;2023-08-20T03:37:50;23.40;86.50
24144;DHT22;12307;50.828;6.080;2023-08-20T03:40:16;23.40;86.50
24144;DHT22;12307;50.828;6.080;2023-08-20T03:42:43;23.40;86.50
24144;DHT22;12307;50.828;6.080;2023-08-20T03:45:11;23.40;86.50
24144;DHT22;12307;50.828;6.080;2023-08-20T03:47:36;23.40;86.50
24144;DHT22;12307;50.828;6.080;2023-08-20T03:50:02;23.40;86.50
24144;DHT22;12307;50.828;6.080;2023-08-20T03:52:28;23.40;86.50
24144;DHT22;12307;50.828;6.080;2023-08-20T03:54:54;23.40;86.50
24144;DHT22;12307;50.828;6.080;2023-08-20T03:57:19;23.40;86.60
24144;DHT22;12307;50.828;6.080;2023-08-20T03:59:45;23.40;86.50
24144;DHT22;12307;50.828;6.080;2023-08-20T04:02:12;23.40;86.50
24144;DHT22;12307;50.828;6.080;2023-08-20T04:04:38;23.40;86.60
24144;DHT22;12307;50.828;6.080;2023-08-20T04:07:04;23.40;86.50
24144;DHT22;12307;50.828;6.080;2023-08-20T04:09:29;23.40;86.60
24144;DHT22;12307;50.828;6.080;2023-08-20T04:11:55;23.40;86.60
24144;DHT22;12307;50.828;6.080;2023-08-20T04:14:21;23.40;86.60
24144;DHT22;12307;50.828;6.080;2023-08-20T04:16:47;23.40;86.60
24144;DHT22;12307;50.828;6.080;2023-08-20T04:19:14;23.40;86.60
24144;DHT22;12307;50.828;6.080;2023-08-20T04:21:40;23.40;86.60
24144;DHT22;12307;50.828;6.080;2023-08-20T04:24:06;23.40;86.60
24144;DHT22;12307;50.828;6.080;2023-08-20T04:26:31;23.40;86.60
24144;DHT22;12307;50.828;6.080;2023-08-20T04:28:57;23.40;86.60
24144;DHT22;12307;50.828;6.080;2023-08-20T04:31:23;23.40;86.60
24144;DHT22;12307;50.828;6.080;2023-08-20T04:33:49;23.40;86.60
24144;DHT22;12307;50.828;6.080;2023-08-20T04:36:16;23.40;86.60
24144;DHT22;12307;50.828;6.080;2023-08-20T04:38:42;23.40;86.60
24144;DHT22;12307;50.828;6.080;2023-08-20T04:41:07;23.30;86.60
24144;DHT22;12307;50.828;6.080;2023-08-20T04:43:33;23.40;86.70
24144;DHT22;12307;50.828;6.080;2023-08-20T04:45:59;23.30;86.60
24144;DHT22;12307;50.828;6.080;2023-08-20T04:48:24;23.30;86.60
24144;DHT22;12307;50.828;6.080;2023-08-20T04:50:50;23.30;86.70
24144;DHT22;12307;50.828;6.080;2023-08-20T04:53:17;23.30;86.70
24144;DHT22;12307;50.828;6.080;2023-08-20T04:55:43;23.30;86.70
24144;DHT22;12307;50.828;6.080;2023-08-20T04:58:08;23.30;86.70
24144;DHT22;12307;50.828;6.080;2023-08-20T05:00:34;23.30;86.70
24144;DHT22;12307;50.828;6.080;2023-08-20T05:03:00;23.30;86.80
24144;DHT22;12307;50.828;6.080;2023-08-20T05:05:26;23.30;86.70
24144;DHT22;12307;50.828;6.080;2023-08-20T05:07:52;23.30;86.80
24144;DHT22;12307;50.828;6.080;2023-08-20T05:10:19;23.30;87.50
24144;DHT22;12307;50.828;6.080;2023-08-20T05:12:46;23.30;86.80
24144;DHT22;12307;50.828;6.080;2023-08-20T05:15:12;23.30;86.80
24144;DHT22;12307;50.828;6.080;2023-08-20T05:17:37;23.30;86.80
24144;DHT22;12307;50.828;6.080;2023-08-20T05:20:05;23.30;86.80
24144;DHT22;12307;50.828;6.080;2023-08-20T05:22:31;23.30;86.80
24144;DHT22;12307;50.828;6.080;2023-08-20T05:24:57;23.30;86.80
24144;DHT22;12307;50.828;6.080;2023-08-20T05:27:24;23.30;86.80
24144;DHT22;12307;50.828;6.080;2023-08-20T05:29:50;23.30;86.80
24144;DHT22;12307;50.828;6.080;2023-08-20T05:32:16;23.30;86.70
24144;DHT22;12307;50.828;6.080;2023-08-20T05:34:41;23.30;86.70
24144;DHT22;12307;50.828;6.080;2023-08-20T05:37:07;23.30;86.70
24144;DHT22;12307;50.828;6.080;2023-08-20T05:39:36;23.30;86.70
24144;DHT22;12307;50.828;6.080;2023-08-20T05:42:03;23.30;86.70
24144;DHT22;12307;50.828;6.080;2023-08-20T05:44:31;23.30;86.60
24144;DHT22;12307;50.828;6.080;2023-08-20T05:46:57;23.30;86.60
24144;DHT22;12307;50.828;6.080;2023-08-20T05:49:22;23.30;86.60
24144;DHT22;12307;50.828;6.080;2023-08-20T05:51:48;23.30;86.60
24144;DHT22;12307;50.828;6.080;2023-08-20T05:54:14;23.40;86.60
24144;DHT22;12307;50.828;6.080;2023-08-20T05:56:39;23.40;86.60
24144;DHT22;12307;50.828;6.080;2023-08-20T05:59:05;23.40;86.60
24144;DHT22;12307;50.828;6.080;2023-08-20T06:01:32;23.40;86.60
24144;DHT22;12307;50.828;6.080;2023-08-20T06:03:58;23.40;86.50
24144;DHT22;12307;50.828;6.080;2023-08-20T06:06:25;23.40;86.50
24144;DHT22;12307;50.828;6.080;2023-08-20T06:08:51;23.40;86.50
24144;DHT22;12307;50.828;6.080;2023-08-20T06:11:17;23.40;86.40
24144;DHT22;12307;50.828;6.080;2023-08-20T06:13:42;23.40;86.40
24144;DHT22;12307;50.828;6.080;2023-08-20T06:16:08;23.40;86.40
24144;DHT22;12307;50.828;6.080;2023-08-20T06:18:35;23.40;86.30
24144;DHT22;12307;50.828;6.080;2023-08-20T06:21:02;23.40;86.30
24144;DHT22;12307;50.828;6.080;2023-08-20T06:23:28;23.40;86.30
24144;DHT22;12307;50.828;6.080;2023-08-20T06:25:53;23.40;86.30
24144;DHT22;12307;50.828;6.080;2023-08-20T06:28:19;23.50;86.30
24144;DHT22;12307;50.828;6.080;2023-08-20T06:30:45;23.50;86.30
24144;DHT22;12307;50.828;6.080;2023-08-20T06:33:11;23.50;86.30
24144;DHT22;12307;50.828;6.080;2023-08-20T06:35:38;23.50;87.00
24144;DHT22;12307;50.828;6.080;2023-08-20T06:38:04;23.50;86.20
24144;DHT22;12307;50.828;6.080;2023-08-20T06:40:30;23.50;86.10
24144;DHT22;12307;50.828;6.080;2023-08-20T06:42:56;23.50;86.10
24144;DHT22;12307;50.828;6.080;2023-08-20T06:45:21;23.50;86.00
24144;DHT22;12307;50.828;6.080;2023-08-20T06:47:47;23.50;86.00
24144;DHT22;12307;50.828;6.080;2023-08-20T06:50:13;23.50;85.90
24144;DHT22;12307;50.828;6.080;2023-08-20T06:52:40;23.50;85.90
24144;DHT22;12307;50.828;6.080;2023-08-20T06:55:06;23.50;85.80
24144;DHT22;12307;50.828;6.080;2023-08-20T06:57:32;23.50;85.80
24144;DHT22;12307;50.828;6.080;2023-08-20T06:59:57;23.60;85.70
24144;DHT22;12307;50.828;6.080;2023-08-20T07:02:23;23.60;85.70
24144;DHT22;12307;50.828;6.080;2023-08-20T07:04:49;23.60;85.60
24144;DHT22;12307;50.828;6.080;2023-08-20T07:07:15;23.60;85.60
24144;DHT22;12307;50.828;6.080;2023-08-20T07:09:42;23.60;85.50
24144;DHT22;12307;50.828;6.080;2023-08-20T07:12:08;23.70;85.50
24144;DHT22;12307;50.828;6.080;2023-08-20T07:14:34;23.60;85.30
24144;DHT22;12307;50.828;6.080;2023-08-20T07:17:00;23.60;85.30
24144;DHT22;12307;50.828;6.080;2023-08-20T07:19:28;23.70;85.30
24144;DHT22;12307;50.828;6.080;2023-08-20T07:21:53;23.70;85.20
24144;DHT22;12307;50.828;6.080;2023-08-20T07:24:20;23.70;85.10
24144;DHT22;12307;50.828;6.080;2023-08-20T07:26:52;23.80;85.10
24144;DHT22;12307;50.828;6.080;2023-08-20T07:29:18;23.70;85.00
24144;DHT22;12307;50.828;6.080;2023-08-20T07:31:43;23.80;85.00
24144;DHT22;12307;50.828;6.080;2023-08-20T07:34:09;23.80;85.00
24144;DHT22;12307;50.828;6.080;2023-08-20T07:36:35;23.80;85.00
24144;DHT22;12307;50.828;6.080;2023-08-20T07:39:01;23.80;84.90
24144;DHT22;12307;50.828;6.080;2023-08-20T07:41:27;23.80;84.90
24144;DHT22;12307;50.828;6.080;2023-08-20T07:43:54;23.80;84.80
24144;DHT22;12307;50.828;6.080;2023-08-20T07:46:19;23.80;84.80
24144;DHT22;12307;50.828;6.080;2023-08-20T07:48:45;23.80;84.70
24144;DHT22;12307;50.828;6.080;2023-08-20T07:51:11;23.90;84.70
24144;DHT22;12307;50.828;6.080;2023-08-20T07:53:37;23.90;84.70
24144;DHT22;12307;50.828;6.080;2023-08-20T07:56:03;23.90;84.60
24144;DHT22;12307;50.828;6.080;2023-08-20T07:58:29;23.90;84.50
24144;DHT22;12307;50.828;6.080;2023-08-20T08:00:57;24.00;84.50
24144;DHT22;12307;50.828;6.080;2023-08-20T08:03:25;24.00;84.40
24144;DHT22;12307;50.828;6.080;2023-08-20T08:05:51;24.00;84.30
24144;DHT22;12307;50.828;6.080;2023-08-20T08:08:17;24.10;84.40
24144;DHT22;12307;50.828;6.080;2023-08-20T08:10:43;24.10;84.30
24144;DHT22;12307;50.828;6.080;2023-08-20T08:13:11;24.10;84.20
24144;DHT22;12307;50.828;6.080;2023-08-20T08:15:37;24.10;84.20
24144;DHT22;12307;50.828;6.080;2023-08-20T08:18:05;24.20;84.20
24144;DHT22;12307;50.828;6.080;2023-08-20T08:20:31;24.20;84.10
24144;DHT22;12307;50.828;6.080;2023-08-20T08:22:56;24.30;84.00
24144;DHT22;12307;50.828;6.080;2023-08-20T08:25:22;24.30;83.90
24144;DHT22;12307;50.828;6.080;2023-08-20T08:27:48;24.30;83.80
24144;DHT22;12307;50.828;6.080;2023-08-20T08:30:14;24.40;83.90
24144;DHT22;12307;50.828;6.080;2023-08-20T08:32:40;24.40;83.90
24144;DHT22;12307;50.828;6.080;2023-08-20T08:35:08;24.50;83.90
24144;DHT22;12307;50.828;6.080;2023-08-20T08:37:33;24.50;83.90
24144;DHT22;12307;50.828;6.080;2023-08-20T08:40:00;24.60;83.80
24144;DHT22;12307;50.828;6.080;2023-08-20T08:42:25;24.70;83.80
24144;DHT22;12307;50.828;6.080;2023-08-20T08:44:51;24.80;83.70
24144;DHT22;12307;50.828;6.080;2023-08-20T08:47:18;24.90;83.60
24144;DHT22;12307;50.828;6.080;2023-08-20T08:49:44;24.90;83.50
24144;DHT22;12307;50.828;6.080;2023-08-20T08:52:12;25.00;83.40
24144;DHT22;12307;50.828;6.080;2023-08-20T08:54:37;24.90;83.20
24144;DHT22;12307;50.828;6.080;2023-08-20T08:57:04;25.00;83.20
24144;DHT22;12307;50.828;6.080;2023-08-20T08:59:30;25.00;83.10
24144;DHT22;12307;50.828;6.080;2023-08-20T09:01:56;25.00;83.00
24144;DHT22;12307;50.828;6.080;2023-08-20T09:04:22;25.10;82.80
24144;DHT22;12307;50.828;6.080;2023-08-20T09:06:49;25.20;82.70
24144;DHT22;12307;50.828;6.080;2023-08-20T09:09:18;25.40;82.60
24144;DHT22;12307;50.828;6.080;2023-08-20T09:11:44;25.40;82.40
24144;DHT22;12307;50.828;6.080;2023-08-20T09:14:21;25.50;82.20
24144;DHT22;12307;50.828;6.080;2023-08-20T09:16:47;25.50;81.90
24144;DHT22;12307;50.828;6.080;2023-08-20T09:19:19;25.60;81.90
24144;DHT22;12307;50.828;6.080;2023-08-20T09:21:46;25.70;81.80
24144;DHT22;12307;50.828;6.080;2023-08-20T09:24:12;25.80;81.50
24144;DHT22;12307;50.828;6.080;2023-08-20T09:26:39;25.90;81.50
24144;DHT22;12307;50.828;6.080;2023-08-20T09:29:05;26.00;81.20
24144;DHT22;12307;50.828;6.080;2023-08-20T09:31:37;26.10;81.00
24144;DHT22;12307;50.828;6.080;2023-08-20T09:34:04;26.10;80.80
24144;DHT22;12307;50.828;6.080;2023-08-20T09:36:31;26.20;80.60
24144;DHT22;12307;50.828;6.080;2023-08-20T09:38:58;26.30;80.40
24144;DHT22;12307;50.828;6.080;2023-08-20T09:41:24;26.40;80.20
24144;DHT22;12307;50.828;6.080;2023-08-20T09:43:56;26.40;79.90
24144;DHT22;12307;50.828;6.080;2023-08-20T09:46:24;26.50;79.60
24144;DHT22;12307;50.828;6.080;2023-08-20T09:48:51;26.60;79.40
24144;DHT22;12307;50.828;6.080;2023-08-20T09:51:21;26.70;79.20
24144;DHT22;12307;50.828;6.080;2023-08-20T09:53:55;26.80;78.90
24144;DHT22;12307;50.828;6.080;2023-08-20T09:56:27;26.90;78.70
24144;DHT22;12307;50.828;6.080;2023-08-20T09:58:58;27.00;78.40
24144;DHT22;12307;50.828;6.080;2023-08-20T10:01:25;27.00;78.10
24144;DHT22;12307;50.828;6.080;2023-08-20T10:03:50;27.00;77.80
24144;DHT22;12307;50.828;6.080;2023-08-20T10:06:17;27.00;77.70
24144;DHT22;12307;50.828;6.080;2023-08-20T10:08:44;27.00;77.40
24144;DHT22;12307;50.828;6.080;2023-08-20T10:11:12;27.10;77.20
24144;DHT22;12307;50.828;6.080;2023-08-20T10:13:37;27.10;77.00
24144;DHT22;12307;50.828;6.080;2023-08-20T10:16:05;27.10;76.80
24144;DHT22;12307;50.828;6.080;2023-08-20T10:18:31;27.00;76.70
24144;DHT22;12307;50.828;6.080;2023-08-20T10:21:01;26.90;76.50
24144;DHT22;12307;50.828;6.080;2023-08-20T10:23:26;26.90;76.40
24144;DHT22;12307;50.828;6.080;2023-08-20T10:25:53;26.90;76.40
24144;DHT22;12307;50.828;6.080;2023-08-20T10:28:21;26.90;76.30
24144;DHT22;12307;50.828;6.080;2023-08-20T10:31:07;27.10;76.00
24144;DHT22;12307;50.828;6.080;2023-08-20T10:33:34;27.30;75.70
24144;DHT22;12307;50.828;6.080;2023-08-20T10:36:08;27.50;75.50
24144;DHT22;12307;50.828;6.080;2023-08-20T10:38:35;27.70;75.20
24144;DHT22;12307;50.828;6.080;2023-08-20T10:41:01;27.80;74.90
24144;DHT22;12307;50.828;6.080;2023-08-20T10:43:31;27.80;74.70
24144;DHT22;12307;50.828;6.080;2023-08-20T10:46:15;27.70;75.50
24144;DHT22;12307;50.828;6.080;2023-08-20T10:48:42;27.60;74.60
24144;DHT22;12307;50.828;6.080;2023-08-20T10:51:13;27.60;74.50
24144;DHT22;12307;50.828;6.080;2023-08-20T10:53:40;27.80;74.30
24144;DHT22;12307;50.828;6.080;2023-08-20T10:56:16;28.00;74.00
24144;DHT22;12307;50.828;6.080;2023-08-20T10:58:45;28.20;73.60
24144;DHT22;12307;50.828;6.080;2023-08-20T11:01:22;28.20;73.40
24144;DHT22;12307;50.828;6.080;2023-08-20T11:03:49;28.10;73.30
24144;DHT22;12307;50.828;6.080;2023-08-20T11:06:16;28.00;73.30
24144;DHT22;12307;50.828;6.080;2023-08-20T11:08:42;27.80;73.30
24144;DHT22;12307;50.828;6.080;2023-08-20T11:11:09;27.70;73.40
24144;DHT22;12307;50.828;6.080;2023-08-20T11:13:35;27.60;73.40
24144;DHT22;12307;50.828;6.080;2023-08-20T11:16:02;27.70;73.40
24144;DHT22;12307;50.828;6.080;2023-08-20T11:18:30;27.80;73.10
24144;DHT22;12307;50.828;6.080;2023-08-20T11:20:56;27.90;72.90
24144;DHT22;12307;50.828;6.080;2023-08-20T11:23:22;28.00;72.70
24144;DHT22;12307;50.828;6.080;2023-08-20T11:25:48;28.00;72.60
24144;DHT22;12307;50.828;6.080;2023-08-20T11:28:14;27.90;72.70
24144;DHT22;12307;50.828;6.080;2023-08-20T11:30:39;27.80;72.80
24144;DHT22;12307;50.828;6.080;2023-08-20T11:33:05;27.70;72.80
24144;DHT22;12307;50.828;6.080;2023-08-20T11:35:32;27.60;72.80
24144;DHT22;12307;50.828;6.080;2023-08-20T11:37:59;27.80;72.80
24144;DHT22;12307;50.828;6.080;2023-08-20T11:40:25;28.00;72.50
24144;DHT22;12307;50.828;6.080;2023-08-20T11:42:50;28.10;72.30
24144;DHT22;12307;50.828;6.080;2023-08-20T11:45:16;28.20;72.10
24144;DHT22;12307;50.828;6.080;2023-08-20T11:47:42;28.30;72.10
24144;DHT22;12307;50.828;6.080;2023-08-20T11:50:08;28.40;71.90
24144;DHT22;12307;50.828;6.080;2023-08-20T11:52:36;28.50;71.60
24144;DHT22;12307;50.828;6.080;2023-08-20T11:55:05;28.60;71.40
24144;DHT22;12307;50.828;6.080;2023-08-20T11:57:31;28.70;71.30
24144;DHT22;12307;50.828;6.080;2023-08-20T12:00:00;28.70;71.20
24144;DHT22;12307;50.828;6.080;2023-08-20T12:02:29;28.80;71.10
24144;DHT22;12307;50.828;6.080;2023-08-20T12:04:56;28.90;70.80
24144;DHT22;12307;50.828;6.080;2023-08-20T12:07:25;29.00;70.60
24144;DHT22;12307;50.828;6.080;2023-08-20T12:09:54;28.90;70.50
24144;DHT22;12307;50.828;6.080;2023-08-20T12:12:21;28.70;70.70
24144;DHT22;12307;50.828;6.080;2023-08-20T12:14:47;28.60;70.70
24144;DHT22;12307;50.828;6.080;2023-08-20T12:17:17;28.60;70.70
24144;DHT22;12307;50.828;6.080;2023-08-20T12:19:42;28.80;70.50
24144;DHT22;12307;50.828;6.080;2023-08-20T12:22:08;28.90;70.20
24144;DHT22;12307;50.828;6.080;2023-08-20T12:24:34;29.00;69.90
24144;DHT22;12307;50.828;6.080;2023-08-20T12:27:01;29.10;69.70
24144;DHT22;12307;50.828;6.080;2023-08-20T12:29:27;29.10;69.40
24144;DHT22;12307;50.828;6.080;2023-08-20T12:31:53;29.20;69.20
24144;DHT22;12307;50.828;6.080;2023-08-20T12:34:19;29.30;69.00
24144;DHT22;12307;50.828;6.080;2023-08-20T12:36:47;29.30;68.90
24144;DHT22;12307;50.828;6.080;2023-08-20T12:39:12;29.30;68.80
24144;DHT22;12307;50.828;6.080;2023-08-20T12:41:39;29.30;68.70
24144;DHT22;12307;50.828;6.080;2023-08-20T12:44:06;29.30;68.60
24144;DHT22;12307;50.828;6.080;2023-08-20T12:46:32;29.30;68.50
24144;DHT22;12307;50.828;6.080;2023-08-20T12:48:58;29.30;68.40
24144;DHT22;12307;50.828;6.080;2023-08-20T12:51:24;29.20;68.30
24144;DHT22;12307;50.828;6.080;2023-08-20T12:53:50;29.10;68.60
24144;DHT22;12307;50.828;6.080;2023-08-20T12:56:15;28.90;68.80
24144;DHT22;12307;50.828;6.080;2023-08-20T12:58:41;28.70;69.10
24144;DHT22;12307;50.828;6.080;2023-08-20T13:01:08;28.60;69.40
24144;DHT22;12307;50.828;6.080;2023-08-20T13:03:35;28.40;69.50
24144;DHT22;12307;50.828;6.080;2023-08-20T13:06:01;28.30;69.70
24144;DHT22;12307;50.828;6.080;2023-08-20T13:08:27;28.30;70.00
24144;DHT22;12307;50.828;6.080;2023-08-20T13:10:54;28.20;70.10
24144;DHT22;12307;50.828;6.080;2023-08-20T13:13:21;28.10;70.10
24144;DHT22;12307;50.828;6.080;2023-08-20T13:15:48;28.10;70.30
24144;DHT22;12307;50.828;6.080;2023-08-20T13:18:16;28.00;70.40
24144;DHT22;12307;50.828;6.080;2023-08-20T13:20:41;28.00;70.50
24144;DHT22;12307;50.828;6.080;2023-08-20T13:23:09;27.90;70.60
24144;DHT22;12307;50.828;6.080;2023-08-20T13:25:35;27.90;70.70
24144;DHT22;12307;50.828;6.080;2023-08-20T13:28:00;27.90;70.90
24144;DHT22;12307;50.828;6.080;2023-08-20T13:30:26;27.80;71.00
24144;DHT22;12307;50.828;6.080;2023-08-20T13:32:52;27.80;71.10
24144;DHT22;12307;50.828;6.080;2023-08-20T13:35:19;27.80;71.30
24144;DHT22;12307;50.828;6.080;2023-08-20T13:37:45;27.80;71.30
24144;DHT22;12307;50.828;6.080;2023-08-20T13:40:11;27.80;71.50
24144;DHT22;12307;50.828;6.080;2023-08-20T13:42:37;27.70;71.50
24144;DHT22;12307;50.828;6.080;2023-08-20T13:45:03;27.70;71.60
24144;DHT22;12307;50.828;6.080;2023-08-20T13:47:29;27.70;71.70
24144;DHT22;12307;50.828;6.080;2023-08-20T13:49:55;27.60;71.70
24144;DHT22;12307;50.828;6.080;2023-08-20T13:52:22;27.60;71.80
24144;DHT22;12307;50.828;6.080;2023-08-20T13:54:48;27.60;71.90
24144;DHT22;12307;50.828;6.080;2023-08-20T13:57:14;27.60;72.00
24144;DHT22;12307;50.828;6.080;2023-08-20T13:59:39;27.60;72.10
24144;DHT22;12307;50.828;6.080;2023-08-20T14:02:05;27.50;72.10
24144;DHT22;12307;50.828;6.080;2023-08-20T14:04:31;27.50;72.20
24144;DHT22;12307;50.828;6.080;2023-08-20T14:06:57;27.50;72.30
24144;DHT22;12307;50.828;6.080;2023-08-20T14:09:24;27.40;72.50
24144;DHT22;12307;50.828;6.080;2023-08-20T14:11:50;27.40;72.40
24144;DHT22;12307;50.828;6.080;2023-08-20T14:14:16;27.40;72.50
24144;DHT22;12307;50.828;6.080;2023-08-20T14:16:42;27.40;72.60
24144;DHT22;12307;50.828;6.080;2023-08-20T14:19:07;27.30;72.60
24144;DHT22;12307;50.828;6.080;2023-08-20T14:21:33;27.30;72.70
24144;DHT22;12307;50.828;6.080;2023-08-20T14:23:59;27.30;72.80
24144;DHT22;12307;50.828;6.080;2023-08-20T14:26:26;27.30;72.90
24144;DHT22;12307;50.828;6.080;2023-08-20T14:28:52;27.30;73.00
24144;DHT22;12307;50.828;6.080;2023-08-20T14:31:18;27.30;73.00
24144;DHT22;12307;50.828;6.080;2023-08-20T14:33:44;27.20;73.00
24144;DHT22;12307;50.828;6.080;2023-08-20T14:36:10;27.20;73.10
24144;DHT22;12307;50.828;6.080;2023-08-20T14:38:35;27.20;73.10
24144;DHT22;12307;50.828;6.080;2023-08-20T14:41:03;27.20;73.20
24144;DHT22;12307;50.828;6.080;2023-08-20T14:43:30;27.20;73.20
24144;DHT22;12307;50.828;6.080;2023-08-20T14:45:56;27.20;73.30
24144;DHT22;12307;50.828;6.080;2023-08-20T14:48:22;27.20;73.40
24144;DHT22;12307;50.828;6.080;2023-08-20T14:50:48;27.10;73.30
24144;DHT22;12307;50.828;6.080;2023-08-20T14:53:14;27.10;73.40
24144;DHT22;12307;50.828;6.080;2023-08-20T14:55:40;27.10;73.50
24144;DHT22;12307;50.828;6.080;2023-08-20T14:58:05;27.10;73.60
24144;DHT22;12307;50.828;6.080;2023-08-20T15:00:33;27.10;73.60
24144;DHT22;12307;50.828;6.080;2023-08-20T15:02:58;27.00;73.50
24144;DHT22;12307;50.828;6.080;2023-08-20T15:05:24;27.00;73.60
24144;DHT22;12307;50.828;6.080;2023-08-20T15:07:50;27.00;73.60
24144;DHT22;12307;50.828;6.080;2023-08-20T15:10:16;27.00;73.80
24144;DHT22;12307;50.828;6.080;2023-08-20T15:12:41;27.00;73.80
24144;DHT22;12307;50.828;6.080;2023-08-20T15:15:08;27.00;73.90
24144;DHT22;12307;50.828;6.080;2023-08-20T15:17:38;26.90;73.90
24144;DHT22;12307;50.828;6.080;2023-08-20T15:20:05;26.90;73.90
24144;DHT22;12307;50.828;6.080;2023-08-20T15:22:34;26.90;73.90
24144;DHT22;12307;50.828;6.080;2023-08-20T15:24:59;26.90;74.00
24144;DHT22;12307;50.828;6.080;2023-08-20T15:27:25;26.90;74.10